Main page
METAR-TAF:

METAR-TAF

Airports :

Guangzhou Baiyun International Airport

Guangzhou, China

latitude: 23-10N, longitude: 113-20E, elevation: 8 m

Current weather observation

The report was made 46 minutes ago, at 03:30 UTC
Wind 4 kt from the East/Southeast, varying between North and South/Southeast
Temperature 24°C
Humidity 65%
Pressure 1019 hPa
Visibility 10 km or more
Few clouds at a height of 2500 ft

METAR: ZGGG 250330Z 11002MPS 010V160 9999 FEW025 24/17 Q1019 NOSIG

Time: 12:16 (04:16 UTC)

Forecast

The report was made 7 hours and 14 minutes ago, at 21:02 UTC
Forecast valid from 25 at 00 UTC to 25 at 24 UTC
Wind 8 kt from the South
Visibility: 8000 m
Broken clouds at a height of 3000 ft

TAF: ZGGG 242102Z 2500/2524 18004MPS 8000 BKN030 TX27/2507Z TN18/2522Z

Weather observations and forecasts of more than 4000 airports (METAR and TAF reports).

The available stations are represented by yellow and red dots on the map.

Hover mouse over dot to see the name of the station.

Then click to see weather observations and forecasts.

To change the map : click on the green buttons with a black cross to zoom in, on the green button with a dash to zoom out, or on the green arrows for adjacent maps.


METAR-TAF: